Portada
METAR-TAF:

METAR-TAF

Aeroports :

Magnitogorsk, Rússia

latitud: 53-23-36N, longitud: 058-45-24E, altitud: 436 m

Observació

L'informe es va fer fa 27 minuts, a les 01:00 UTC
Vent 14 kt del Nord-Est
Temperatura -1°C
Humitat 100%
Pressió 1025 hPa
Visibilitat: 6000 m
Cel cobert a una alçada de 1000 ft
neu

METAR: USCM 140100Z 05007MPS 6000 -SN OVC010 M01/M01 Q1025 R36/590150 TEMPO 1000 SN VV003 RMK QFE730

Hora: 06:27 (01:27 UTC)

Pronòstic

L'informe es va fer fa 2 hores i 27 minuts, a les 23:00 UTC
Pronòstic vàlid del 14 a les 00 UTC al 14 a les 09 UTC
Vent 6 kt del Nord amb ràfegues de 16 kt
Visibilitat: 3100 m
Cel ennuvolat a una alçada de 700 ft
neu
Temporalment
l' 14 a les 00 UTC al 14 a les 09 UTC
Vent 10 kt del Nord/Nord-Est amb ràfegues de 19 kt
Visibilitat: 1400 m
a una alçada de 400 ft
neu

TAF: USCM 132300Z 1400/1409 36003G08MPS 3100 -SN BKN007 TEMPO 1400/1409 02005G10MPS 1400 SN VV004

Observacions i pronòstics meteorològics de més de 4000 aeroports (METAR i TAF).

Les estacions disponibles són els punts grocs i vermells al mapa.

Posi el ratolí al punt desitjat per veure el nom de l'estació.

Feu clic per veure les observacions i els pronòstics meteorològics.

Per canviar el mapa: feu clic els botons verds amb una creu de color negre per apropar; al botó verd amb un guió per allunyar la imatge; o en les fletxes verdes per a mapes adjacents.


METAR-TAF: